createdAt,value
2022-12-03T00:02:16.179Z,11.83
2022-12-03T00:04:43.020Z,12.40
2022-12-03T00:07:09.727Z,12.87
2022-12-03T00:09:36.450Z,12.33
2022-12-03T00:12:03.307Z,11.77
2022-12-03T00:14:30.098Z,12.70
2022-12-03T00:16:56.782Z,12.93
2022-12-03T00:19:23.494Z,11.67
2022-12-03T00:21:50.315Z,11.70
2022-12-03T00:24:17.878Z,12.13
2022-12-03T00:26:44.594Z,12.93
2022-12-03T00:29:11.485Z,12.13
2022-12-03T00:31:38.290Z,13.73
2022-12-03T00:34:05.078Z,12.77
2022-12-03T00:36:31.771Z,12.90
2022-12-03T00:38:58.522Z,13.23
2022-12-03T00:41:25.771Z,12.77
2022-12-03T00:43:57.408Z,12.17
2022-12-03T00:46:25.268Z,11.97
2022-12-03T00:48:52.276Z,12.57
2022-12-03T00:51:19.559Z,12.20
2022-12-03T00:53:46.249Z,14.23
2022-12-03T00:56:13.138Z,12.47
2022-12-03T00:58:39.968Z,12.00
2022-12-03T01:01:06.711Z,13.23
2022-12-03T01:03:33.490Z,13.70
2022-12-03T01:06:00.211Z,12.70
2022-12-03T01:08:27.038Z,12.40
2022-12-03T01:10:53.770Z,12.63
2022-12-03T01:13:20.451Z,13.20
2022-12-03T01:15:47.481Z,11.87
2022-12-03T01:18:14.194Z,12.33
2022-12-03T01:20:40.997Z,12.43
2022-12-03T01:23:07.839Z,12.50
2022-12-03T01:25:34.584Z,12.33
2022-12-03T01:28:01.274Z,13.77
2022-12-03T01:30:27.996Z,11.90
2022-12-03T01:32:54.721Z,11.60
2022-12-03T01:35:21.416Z,13.07
2022-12-03T01:37:48.129Z,12.57
2022-12-03T01:40:19.175Z,12.20
2022-12-03T01:42:45.917Z,12.37
2022-12-03T01:45:23.713Z,13.00
2022-12-03T01:47:50.790Z,12.27
2022-12-03T01:50:30.132Z,12.43
2022-12-03T01:53:00.303Z,12.63
2022-12-03T01:55:27.249Z,13.80
2022-12-03T01:57:57.226Z,13.17
2022-12-03T02:00:29.532Z,12.50
2022-12-03T02:03:02.088Z,13.30
2022-12-03T02:05:31.406Z,13.27
2022-12-03T02:07:59.228Z,12.13
2022-12-03T02:10:34.313Z,11.50
2022-12-03T02:13:02.566Z,12.70
2022-12-03T02:15:29.359Z,13.40
2022-12-03T02:17:56.702Z,13.97
2022-12-03T02:20:23.531Z,12.40
2022-12-03T02:23:20.958Z,12.57
2022-12-03T02:25:47.650Z,12.77
2022-12-03T02:28:14.439Z,12.97
2022-12-03T02:30:41.403Z,13.33
2022-12-03T02:33:08.216Z,12.63
2022-12-03T02:35:37.163Z,14.57
2022-12-03T02:38:13.462Z,12.40
2022-12-03T02:40:41.126Z,13.00
2022-12-03T02:43:08.126Z,12.93
2022-12-03T02:45:39.237Z,13.37
2022-12-03T02:48:13.166Z,13.00
2022-12-03T02:50:43.736Z,12.97
2022-12-03T02:53:17.608Z,12.63
2022-12-03T02:55:44.986Z,12.73
2022-12-03T02:58:12.058Z,12.33
2022-12-03T03:00:39.636Z,13.87
2022-12-03T03:03:08.928Z,11.43
2022-12-03T03:05:38.475Z,13.70
2022-12-03T03:08:06.379Z,13.40
2022-12-03T03:10:35.437Z,13.77
2022-12-03T03:13:05.759Z,12.50
2022-12-03T03:15:32.497Z,12.97
2022-12-03T03:17:59.210Z,13.10
2022-12-03T03:20:25.930Z,12.80
2022-12-03T03:22:52.690Z,12.67
2022-12-03T03:25:22.339Z,12.73
2022-12-03T03:27:49.154Z,13.47
2022-12-03T03:30:16.269Z,13.53
2022-12-03T03:32:43.370Z,13.47
2022-12-03T03:35:11.793Z,13.33
2022-12-03T03:37:39.002Z,12.70
2022-12-03T03:40:06.513Z,14.73
2022-12-03T03:42:33.519Z,13.33
2022-12-03T03:45:00.633Z,15.63
2022-12-03T03:47:27.461Z,14.23
2022-12-03T03:49:54.408Z,13.40
2022-12-03T03:52:22.226Z,14.10
2022-12-03T03:54:49.286Z,15.30
2022-12-03T03:57:16.088Z,14.43
2022-12-03T03:59:43.342Z,14.00
2022-12-03T04:02:21.690Z,15.27
2022-12-03T04:05:04.369Z,14.57
2022-12-03T04:07:31.161Z,14.77
2022-12-03T04:09:57.967Z,15.30
2022-12-03T04:12:44.088Z,14.67
2022-12-03T04:15:10.887Z,14.97
2022-12-03T04:17:37.607Z,14.40
2022-12-03T04:20:05.291Z,14.37
2022-12-03T04:22:41.327Z,14.67
2022-12-03T04:25:29.366Z,15.33
2022-12-03T04:28:14.758Z,14.67
2022-12-03T04:30:41.533Z,14.10
2022-12-03T04:33:26.860Z,13.60
2022-12-03T04:35:53.705Z,15.53
2022-12-03T04:38:20.496Z,14.33
2022-12-03T04:41:03.944Z,14.83
2022-12-03T04:43:33.480Z,14.70
2022-12-03T04:46:01.377Z,14.83
2022-12-03T04:48:29.754Z,13.93
2022-12-03T04:50:56.479Z,14.33
2022-12-03T04:53:23.255Z,13.73
2022-12-03T04:55:50.018Z,13.53
2022-12-03T04:58:16.706Z,14.20
2022-12-03T05:00:43.457Z,13.37
2022-12-03T05:03:10.145Z,14.57
2022-12-03T05:05:36.916Z,13.50
2022-12-03T05:08:03.767Z,13.57
2022-12-03T05:10:30.523Z,14.63
2022-12-03T05:12:57.279Z,13.90
2022-12-03T05:15:24.151Z,15.10
2022-12-03T05:17:50.934Z,13.33
2022-12-03T05:20:36.165Z,13.80
2022-12-03T05:23:02.923Z,14.70
2022-12-03T05:25:29.695Z,14.00
2022-12-03T05:27:56.458Z,15.50
2022-12-03T05:30:23.233Z,15.00
2022-12-03T05:32:50.059Z,15.80
2022-12-03T05:35:16.929Z,15.30
2022-12-03T05:37:43.693Z,15.43
2022-12-03T05:40:11.098Z,14.80
2022-12-03T05:42:57.111Z,15.90
2022-12-03T05:45:26.765Z,15.67
2022-12-03T05:47:55.108Z,13.73
2022-12-03T05:50:24.322Z,15.87
2022-12-03T05:52:51.501Z,14.17
2022-12-03T05:55:19.654Z,16.60
2022-12-03T05:57:47.068Z,14.93
2022-12-03T06:00:15.845Z,15.73
2022-12-03T06:02:42.898Z,14.27
2022-12-03T06:05:11.323Z,16.07
2022-12-03T06:07:38.508Z,13.53
2022-12-03T06:10:07.493Z,14.73
2022-12-03T06:12:34.282Z,15.53
2022-12-03T06:15:00.974Z,15.30
2022-12-03T06:17:27.826Z,14.20
2022-12-03T06:19:54.625Z,13.70
2022-12-03T06:22:21.344Z,15.13
2022-12-03T06:24:48.094Z,13.30
2022-12-03T06:27:14.990Z,14.70
2022-12-03T06:29:41.817Z,14.17
2022-12-03T06:32:08.950Z,12.60
2022-12-03T06:34:35.676Z,13.17
2022-12-03T06:37:02.462Z,14.03
2022-12-03T06:39:29.307Z,13.80
2022-12-03T06:41:56.037Z,12.97
2022-12-03T06:44:22.807Z,14.23
2022-12-03T06:46:49.584Z,15.17
2022-12-03T06:49:16.331Z,13.43
2022-12-03T06:51:43.052Z,13.80
2022-12-03T06:54:10.225Z,14.30
2022-12-03T06:56:41.855Z,13.87
2022-12-03T06:59:11.567Z,14.40
2022-12-03T07:01:38.360Z,14.17
2022-12-03T07:04:05.318Z,14.03
2022-12-03T07:06:32.079Z,14.27
2022-12-03T07:08:58.871Z,15.10
2022-12-03T07:11:31.646Z,14.40
2022-12-03T07:14:05.097Z,15.60
2022-12-03T07:16:32.587Z,13.93
2022-12-03T07:18:59.336Z,14.60
2022-12-03T07:21:26.110Z,14.27
2022-12-03T07:23:52.874Z,15.33
2022-12-03T07:26:19.612Z,13.67
2022-12-03T07:28:48.131Z,15.93
2022-12-03T07:31:15.125Z,14.27
2022-12-03T07:33:42.340Z,14.53
2022-12-03T07:36:09.882Z,14.43
2022-12-03T07:38:36.690Z,14.97
2022-12-03T07:41:03.729Z,15.30
2022-12-03T07:43:30.570Z,16.70
2022-12-03T07:45:57.371Z,15.50
2022-12-03T07:48:24.085Z,14.40
2022-12-03T07:50:51.080Z,15.33
2022-12-03T07:53:17.804Z,17.00
2022-12-03T07:55:44.619Z,13.27
2022-12-03T07:58:12.486Z,15.93
2022-12-03T08:00:39.341Z,16.70
2022-12-03T08:03:06.229Z,15.30
2022-12-03T08:05:33.043Z,14.83
2022-12-03T08:07:59.883Z,16.33
2022-12-03T08:10:26.921Z,15.23
2022-12-03T08:12:59.494Z,15.77
2022-12-03T08:15:32.207Z,16.47
2022-12-03T08:18:11.659Z,16.20
2022-12-03T08:20:40.535Z,16.03
2022-12-03T08:23:12.811Z,16.37
2022-12-03T08:25:39.658Z,15.30
2022-12-03T08:28:20.014Z,16.53
2022-12-03T08:30:55.970Z,17.03
2022-12-03T08:33:29.900Z,18.55
2022-12-03T08:35:56.815Z,19.17
2022-12-03T08:38:25.069Z,15.20
2022-12-03T08:40:52.751Z,15.73
2022-12-03T08:43:28.040Z,15.67
2022-12-03T08:45:56.586Z,17.10
2022-12-03T08:48:36.823Z,16.90
2022-12-03T08:51:15.368Z,15.63
2022-12-03T08:53:46.462Z,16.77
2022-12-03T08:56:21.259Z,15.57
2022-12-03T08:58:55.115Z,15.67
2022-12-03T09:01:28.681Z,15.03
2022-12-03T09:03:56.913Z,14.77
2022-12-03T09:06:23.879Z,16.87
2022-12-03T09:08:50.614Z,15.63
2022-12-03T09:11:17.309Z,16.27
2022-12-03T09:13:44.257Z,15.57
2022-12-03T09:16:10.976Z,14.93
2022-12-03T09:18:37.709Z,15.57
2022-12-03T09:21:04.683Z,15.97
2022-12-03T09:23:31.412Z,15.83
2022-12-03T09:25:59.162Z,16.77
2022-12-03T09:28:25.974Z,17.07
2022-12-03T09:30:52.694Z,15.97
2022-12-03T09:33:19.485Z,15.67
2022-12-03T09:35:46.193Z,14.80
2022-12-03T09:38:12.998Z,16.63
2022-12-03T09:40:40.704Z,15.67
2022-12-03T09:43:07.568Z,16.87
2022-12-03T09:45:34.535Z,14.60
2022-12-03T09:48:03.869Z,15.17
2022-12-03T09:50:31.404Z,15.30
2022-12-03T09:53:03.234Z,15.17
2022-12-03T09:55:30.651Z,14.67
2022-12-03T09:57:57.960Z,15.10
2022-12-03T10:00:28.282Z,14.30
2022-12-03T10:02:57.688Z,13.57
2022-12-03T10:05:25.219Z,14.40
2022-12-03T10:07:52.832Z,13.80
2022-12-03T10:10:25.077Z,13.47
2022-12-03T10:12:52.657Z,14.07
2022-12-03T10:15:23.029Z,13.90
2022-12-03T10:17:52.333Z,14.53
2022-12-03T10:20:22.368Z,14.37
2022-12-03T10:22:49.438Z,15.23
2022-12-03T10:25:20.813Z,15.37
2022-12-03T10:27:59.930Z,16.67
2022-12-03T10:30:28.431Z,16.07
2022-12-03T10:32:58.319Z,17.03
2022-12-03T10:35:39.741Z,15.93
2022-12-03T10:38:18.385Z,16.47
2022-12-03T10:40:45.792Z,16.60
2022-12-03T10:43:18.845Z,17.17
2022-12-03T10:46:13.265Z,16.63
2022-12-03T10:48:40.202Z,15.13
2022-12-03T10:51:21.347Z,15.17
2022-12-03T10:53:49.413Z,16.80
2022-12-03T10:56:26.317Z,16.47
2022-12-03T10:58:53.667Z,16.17
2022-12-03T11:01:26.105Z,16.57
2022-12-03T11:04:03.422Z,16.87
2022-12-03T11:06:32.871Z,15.10
2022-12-03T11:09:05.250Z,18.40
2022-12-03T11:11:35.228Z,16.97
2022-12-03T11:14:03.836Z,16.10
2022-12-03T11:16:39.793Z,15.90
2022-12-03T11:19:12.248Z,15.03
2022-12-03T11:22:09.817Z,17.07
2022-12-03T11:24:38.828Z,17.63
2022-12-03T11:27:07.067Z,16.30
2022-12-03T11:29:51.906Z,14.47
2022-12-03T11:32:43.586Z,14.90
2022-12-03T11:35:23.511Z,14.77
2022-12-03T11:37:50.429Z,13.83
2022-12-03T11:40:17.123Z,12.97
2022-12-03T11:42:45.797Z,13.67
2022-12-03T11:45:31.426Z,12.47
2022-12-03T11:47:58.097Z,12.73
2022-12-03T11:50:24.792Z,13.27
2022-12-03T11:53:01.014Z,12.17
2022-12-03T11:55:33.121Z,11.60
2022-12-03T11:58:05.995Z,12.17
2022-12-03T12:00:32.841Z,11.80
2022-12-03T12:02:59.617Z,12.27
2022-12-03T12:05:33.881Z,12.27
2022-12-03T12:08:02.224Z,11.40
2022-12-03T12:10:41.149Z,10.80
2022-12-03T12:13:30.945Z,10.33
2022-12-03T12:15:58.890Z,10.60
2022-12-03T12:18:42.525Z,12.00
2022-12-03T12:21:43.560Z,11.23
2022-12-03T12:24:35.911Z,12.17
2022-12-03T12:27:07.364Z,11.07
2022-12-03T12:29:35.311Z,11.17
2022-12-03T12:32:15.512Z,10.70
2022-12-03T12:34:45.103Z,11.33
2022-12-03T12:37:15.950Z,11.00
2022-12-03T12:39:42.785Z,11.87
2022-12-03T12:42:32.747Z,11.50
2022-12-03T12:45:07.877Z,11.90
2022-12-03T12:47:38.024Z,11.03
2022-12-03T12:50:11.755Z,11.53
2022-12-03T12:53:01.260Z,10.23
2022-12-03T12:55:28.302Z,10.93
2022-12-03T12:57:59.928Z,12.50
2022-12-03T13:00:26.900Z,11.40
2022-12-03T13:03:01.362Z,10.07
2022-12-03T13:05:47.202Z,10.27
2022-12-03T13:08:25.950Z,10.83
2022-12-03T13:10:55.405Z,10.40
2022-12-03T13:13:41.692Z,10.97
2022-12-03T13:16:26.191Z,10.57
2022-12-03T13:18:58.329Z,11.10
2022-12-03T13:21:42.858Z,11.27
2022-12-03T13:24:26.884Z,10.80
2022-12-03T13:26:53.652Z,11.90
2022-12-03T13:29:22.839Z,12.82
2022-12-03T13:32:02.237Z,12.52
2022-12-03T13:34:33.435Z,12.20
2022-12-03T13:37:01.719Z,12.30
2022-12-03T13:39:50.973Z,12.30
2022-12-03T13:42:42.079Z,11.20
2022-12-03T13:45:14.904Z,11.93
2022-12-03T13:47:47.382Z,10.73
2022-12-03T13:50:46.137Z,12.03
2022-12-03T13:53:38.243Z,12.23
2022-12-03T13:56:30.622Z,12.80
2022-12-03T13:59:00.119Z,14.03
2022-12-03T14:01:30.390Z,14.47
2022-12-03T14:03:57.324Z,16.00
2022-12-03T14:06:24.258Z,16.80
2022-12-03T14:08:51.466Z,15.43
2022-12-03T14:11:36.683Z,16.33
2022-12-03T14:14:03.603Z,16.50
2022-12-03T14:16:30.430Z,16.27
2022-12-03T14:18:57.233Z,17.87
2022-12-03T14:21:24.232Z,16.63
2022-12-03T14:23:51.083Z,17.23
2022-12-03T14:26:20.138Z,17.00
2022-12-03T14:28:47.068Z,16.40
2022-12-03T14:31:16.328Z,15.93
2022-12-03T14:33:43.509Z,15.67
2022-12-03T14:36:12.947Z,15.17
2022-12-03T14:38:39.843Z,15.50
2022-12-03T14:41:26.653Z,15.77
2022-12-03T14:43:54.726Z,15.03
2022-12-03T14:46:25.376Z,13.67
2022-12-03T14:48:54.291Z,13.07
2022-12-03T14:51:21.594Z,13.63
2022-12-03T14:53:48.442Z,14.17
2022-12-03T14:56:15.328Z,12.97
2022-12-03T14:58:42.163Z,13.73
2022-12-03T15:01:09.186Z,14.03
2022-12-03T15:03:36.173Z,13.67
2022-12-03T15:06:03.197Z,13.53
2022-12-03T15:08:30.319Z,13.60
2022-12-03T15:10:57.079Z,14.20
2022-12-03T15:13:23.907Z,14.30
2022-12-03T15:15:50.706Z,12.70
2022-12-03T15:18:17.659Z,12.30
2022-12-03T15:20:44.644Z,13.63
2022-12-03T15:23:14.534Z,12.47
2022-12-03T15:25:41.832Z,12.87
2022-12-03T15:28:09.891Z,12.43
2022-12-03T15:30:39.675Z,12.30
2022-12-03T15:33:06.691Z,13.60
2022-12-03T15:35:33.643Z,12.23
2022-12-03T15:38:00.506Z,12.73
2022-12-03T15:40:27.645Z,12.77
2022-12-03T15:42:54.794Z,12.43
2022-12-03T15:45:21.780Z,12.60
2022-12-03T15:47:48.599Z,11.47
2022-12-03T15:50:15.435Z,12.10
2022-12-03T15:52:42.712Z,13.73
2022-12-03T15:55:10.839Z,12.97
2022-12-03T15:57:37.863Z,13.17
2022-12-03T16:00:06.691Z,13.80
2022-12-03T16:02:39.507Z,14.80
2022-12-03T16:05:09.130Z,14.33
2022-12-03T16:07:36.185Z,14.87
2022-12-03T16:10:04.891Z,16.13
2022-12-03T16:12:31.967Z,18.13
2022-12-03T16:14:58.797Z,18.63
2022-12-03T16:17:25.749Z,16.17
2022-12-03T16:19:52.933Z,16.47
2022-12-03T16:22:19.951Z,17.13
2022-12-03T16:24:46.724Z,18.00
2022-12-03T16:27:13.605Z,16.63
2022-12-03T16:29:40.385Z,17.80
2022-12-03T16:32:07.296Z,15.43
2022-12-03T16:34:34.778Z,17.07
2022-12-03T16:37:03.493Z,17.97
2022-12-03T16:39:34.766Z,17.87
2022-12-03T16:42:01.621Z,16.30
2022-12-03T16:44:54.250Z,15.80
2022-12-03T16:47:22.345Z,17.37
2022-12-03T16:49:49.926Z,17.20
2022-12-03T16:52:16.964Z,17.87
2022-12-03T16:54:43.805Z,17.50
2022-12-03T16:57:10.556Z,21.80
2022-12-03T16:59:37.530Z,17.53
2022-12-03T17:02:04.426Z,18.03
2022-12-03T17:04:31.359Z,17.50
2022-12-03T17:06:58.073Z,17.07
2022-12-03T17:09:28.182Z,19.03
2022-12-03T17:11:55.023Z,18.87
2022-12-03T17:14:21.848Z,17.10
2022-12-03T17:16:49.365Z,18.50
2022-12-03T17:19:16.378Z,15.93
2022-12-03T17:21:43.129Z,17.03
2022-12-03T17:24:09.905Z,15.90
2022-12-03T17:26:36.617Z,18.97
2022-12-03T17:29:03.497Z,17.17
2022-12-03T17:31:30.369Z,18.83
2022-12-03T17:33:57.787Z,17.83
2022-12-03T17:36:25.078Z,18.50
2022-12-03T17:38:51.934Z,16.57
2022-12-03T17:41:18.665Z,18.67
2022-12-03T17:43:45.463Z,18.13
2022-12-03T17:46:12.207Z,18.50
2022-12-03T17:48:40.536Z,18.57
2022-12-03T17:51:07.296Z,18.13
2022-12-03T17:53:34.021Z,17.90
2022-12-03T17:56:00.804Z,18.57
2022-12-03T17:58:28.561Z,17.47
2022-12-03T18:01:01.850Z,17.83
2022-12-03T18:03:29.515Z,17.23
2022-12-03T18:05:56.577Z,16.73
2022-12-03T18:08:23.598Z,18.53
2022-12-03T18:10:50.560Z,16.83
2022-12-03T18:13:17.375Z,18.20
2022-12-03T18:15:44.200Z,16.13
2022-12-03T18:18:11.026Z,18.43
2022-12-03T18:20:38.215Z,16.67
2022-12-03T18:23:05.516Z,17.83
2022-12-03T18:25:32.380Z,17.13
2022-12-03T18:27:59.125Z,17.97
2022-12-03T18:30:26.015Z,18.03
2022-12-03T18:32:53.673Z,16.10
2022-12-03T18:35:20.752Z,16.67
2022-12-03T18:37:49.937Z,17.40
2022-12-03T18:40:23.578Z,17.33
2022-12-03T18:42:50.565Z,16.37
2022-12-03T18:45:17.447Z,15.93
2022-12-03T18:47:44.682Z,15.90
2022-12-03T18:50:12.794Z,16.00
2022-12-03T18:52:39.613Z,15.53
2022-12-03T18:55:07.376Z,17.67
2022-12-03T18:57:34.177Z,16.33
2022-12-03T19:00:00.891Z,16.83
2022-12-03T19:05:14.367Z,16.10
2022-12-03T19:07:43.218Z,16.27
2022-12-03T19:10:11.425Z,15.47
2022-12-03T19:12:39.002Z,15.97
2022-12-03T19:15:06.487Z,15.47
2022-12-03T19:17:33.193Z,17.00
2022-12-03T19:19:59.930Z,17.37
2022-12-03T19:22:26.685Z,17.83
2022-12-03T19:24:53.525Z,18.10
2022-12-03T19:27:20.279Z,16.73
2022-12-03T19:29:50.196Z,17.50
2022-12-03T19:32:17.285Z,17.37
2022-12-03T19:34:44.055Z,17.00
2022-12-03T19:37:10.762Z,16.63
2022-12-03T19:39:37.602Z,17.87
2022-12-03T19:42:04.423Z,16.30
2022-12-03T19:44:31.410Z,15.97
2022-12-03T19:46:58.185Z,16.97
2022-12-03T19:49:25.056Z,17.50
2022-12-03T19:51:51.832Z,15.90
2022-12-03T19:54:18.828Z,16.40
2022-12-03T19:56:46.215Z,17.63
2022-12-03T19:59:13.836Z,18.13
2022-12-03T20:01:42.883Z,16.90
2022-12-03T20:04:12.028Z,28.93
2022-12-03T20:06:39.391Z,18.53
2022-12-03T20:09:10.665Z,19.87
2022-12-03T20:11:39.784Z,20.43
2022-12-03T20:14:08.822Z,17.87
2022-12-03T20:16:36.279Z,16.73
2022-12-03T20:19:05.720Z,17.93
2022-12-03T20:21:35.009Z,18.63
2022-12-03T20:24:02.614Z,18.17
2022-12-03T20:26:29.739Z,19.70
2022-12-03T20:28:57.750Z,18.63
2022-12-03T20:31:27.935Z,25.40
2022-12-03T20:33:57.219Z,18.10
2022-12-03T20:36:25.437Z,17.70
2022-12-03T20:39:00.790Z,18.90
2022-12-03T20:41:28.250Z,18.17
2022-12-03T20:43:55.342Z,18.90
2022-12-03T20:46:29.199Z,18.50
2022-12-03T20:48:57.436Z,17.70
2022-12-03T20:51:27.469Z,17.60
2022-12-03T20:53:54.871Z,17.17
2022-12-03T20:56:25.045Z,21.03
2022-12-03T20:58:53.227Z,17.90
2022-12-03T21:01:25.222Z,16.33
2022-12-03T21:03:53.873Z,17.33
2022-12-03T21:06:21.747Z,18.13
2022-12-03T21:08:49.147Z,17.03
2022-12-03T21:11:21.464Z,17.23
2022-12-03T21:13:48.314Z,16.53
2022-12-03T21:16:34.138Z,16.70
2022-12-03T21:19:07.093Z,18.97
2022-12-03T21:21:35.384Z,17.30
2022-12-03T21:24:02.282Z,17.97
2022-12-03T21:26:29.171Z,17.20
2022-12-03T21:28:56.011Z,18.87
2022-12-03T21:31:25.807Z,17.33
2022-12-03T21:33:53.835Z,16.00
2022-12-03T21:36:21.028Z,18.03
2022-12-03T21:38:48.263Z,16.03
2022-12-03T21:41:15.553Z,17.50
2022-12-03T21:43:43.001Z,18.60
2022-12-03T21:47:08.125Z,18.13
2022-12-03T21:49:00.200Z,18.90
2022-12-03T21:51:26.911Z,17.87
2022-12-03T21:53:53.721Z,19.17
2022-12-03T21:56:20.530Z,17.20
2022-12-03T21:58:47.511Z,18.33
2022-12-03T22:01:19.751Z,17.33
2022-12-03T22:03:46.887Z,18.23
2022-12-03T22:06:14.670Z,17.50
2022-12-03T22:08:42.055Z,18.53
2022-12-03T22:11:15.319Z,18.47
2022-12-03T22:13:42.571Z,19.47
2022-12-03T22:16:12.679Z,17.80
2022-12-03T22:18:39.766Z,18.77
2022-12-03T22:21:10.216Z,17.60
2022-12-03T22:23:36.953Z,17.80
2022-12-03T22:26:07.314Z,17.97
2022-12-03T22:28:34.714Z,17.73
2022-12-03T22:31:08.670Z,19.33
2022-12-03T22:33:36.766Z,18.57
2022-12-03T22:36:14.651Z,19.13
2022-12-03T22:38:45.228Z,17.93
2022-12-03T22:41:13.794Z,18.10
2022-12-03T22:43:40.627Z,18.60
2022-12-03T22:46:10.442Z,19.90
2022-12-03T22:48:37.326Z,19.10
2022-12-03T22:51:05.078Z,19.13
2022-12-03T22:53:31.854Z,18.10
2022-12-03T22:55:59.975Z,17.83
2022-12-03T22:58:28.387Z,17.73
2022-12-03T23:01:01.288Z,19.17
2022-12-03T23:03:30.092Z,18.53
2022-12-03T23:05:56.900Z,18.87
2022-12-03T23:08:23.788Z,19.03
2022-12-03T23:10:52.591Z,19.47
2022-12-03T23:13:20.015Z,18.80
2022-12-03T23:15:49.532Z,19.13
2022-12-03T23:18:17.542Z,18.97
2022-12-03T23:20:46.689Z,21.00
2022-12-03T23:23:13.487Z,19.40
2022-12-03T23:25:40.653Z,19.57
2022-12-03T23:28:08.140Z,19.83
2022-12-03T23:30:39.184Z,20.23
2022-12-03T23:33:06.884Z,19.23
2022-12-03T23:35:34.008Z,20.10
2022-12-03T23:38:00.808Z,21.33
2022-12-03T23:40:27.644Z,18.23
2022-12-03T23:42:54.443Z,20.27
2022-12-03T23:45:21.183Z,20.97
2022-12-03T23:47:47.910Z,18.53
2022-12-03T23:50:14.650Z,20.97
2022-12-03T23:52:41.426Z,19.70
2022-12-03T23:55:08.556Z,19.60
2022-12-03T23:57:35.302Z,20.73
